createdAt,value
2022-10-23T00:01:29.426Z,17.37
2022-10-23T00:04:33.947Z,17.39
2022-10-23T00:07:08.890Z,17.34
2022-10-23T00:09:45.247Z,17.39
2022-10-23T00:12:24.379Z,17.37
2022-10-23T00:15:01.665Z,17.32
2022-10-23T00:17:36.801Z,17.33
2022-10-23T00:20:15.928Z,17.46
2022-10-23T00:22:54.060Z,17.57
2022-10-23T00:25:31.429Z,17.49
2022-10-23T00:28:09.641Z,17.24
2022-10-23T00:30:47.846Z,17.15
2022-10-23T00:33:26.366Z,17.26
2022-10-23T00:36:02.458Z,17.20
2022-10-23T00:38:42.476Z,17.36
2022-10-23T00:41:28.037Z,17.39
2022-10-23T00:44:11.183Z,17.32
2022-10-23T00:46:52.464Z,17.38
2022-10-23T00:49:32.488Z,17.56
2022-10-23T00:52:15.949Z,17.57
2022-10-23T00:54:51.085Z,17.56
2022-10-23T00:57:26.477Z,17.54
2022-10-23T01:00:05.703Z,17.53
2022-10-23T01:02:43.209Z,17.59
2022-10-23T01:05:19.925Z,17.65
2022-10-23T01:08:07.352Z,17.62
2022-10-23T01:11:02.766Z,17.71
2022-10-23T01:13:43.941Z,17.72
2022-10-23T01:16:32.392Z,17.80
2022-10-23T01:19:23.708Z,17.66
2022-10-23T01:22:41.906Z,17.62
2022-10-23T01:25:48.429Z,17.66
2022-10-23T01:28:39.233Z,17.59
2022-10-23T01:31:23.588Z,17.45
2022-10-23T01:34:11.319Z,17.17
2022-10-23T01:36:53.528Z,16.75
2022-10-23T01:39:44.941Z,16.71
2022-10-23T01:42:25.346Z,16.64
2022-10-23T01:45:20.714Z,16.63
2022-10-23T01:48:01.029Z,16.64
2022-10-23T01:50:39.257Z,16.63
2022-10-23T01:53:15.960Z,16.65
2022-10-23T01:55:52.655Z,16.59
2022-10-23T01:58:34.835Z,16.63
2022-10-23T02:01:16.003Z,16.61
2022-10-23T02:06:46.663Z,16.77
2022-10-23T02:09:20.875Z,16.50
2022-10-23T02:12:49.775Z,16.50
2022-10-23T02:15:44.264Z,16.55
2022-10-23T02:18:27.684Z,16.55
2022-10-23T02:21:13.277Z,16.54
2022-10-23T02:23:57.326Z,16.54
2022-10-23T02:26:48.633Z,16.63
2022-10-23T02:29:54.295Z,16.39
2022-10-23T02:32:40.021Z,16.31
2022-10-23T02:35:22.394Z,16.02
2022-10-23T02:38:07.493Z,16.20
2022-10-23T02:40:48.682Z,16.37
2022-10-23T02:43:43.830Z,16.27
2022-10-23T02:46:47.725Z,16.11
2022-10-23T02:49:37.768Z,16.15
2022-10-23T02:52:33.355Z,16.19
2022-10-23T02:55:15.878Z,16.19
2022-10-23T02:58:10.358Z,16.10
2022-10-23T03:00:58.406Z,16.29
2022-10-23T03:03:38.641Z,16.46
2022-10-23T03:06:18.132Z,16.26
2022-10-23T03:09:07.519Z,16.01
2022-10-23T03:11:47.504Z,16.05
2022-10-23T03:14:28.185Z,15.75
2022-10-23T03:17:09.152Z,15.81
2022-10-23T03:19:45.522Z,15.56
2022-10-23T03:22:23.121Z,15.52
2022-10-23T03:25:00.401Z,15.49
2022-10-23T03:27:38.923Z,15.58
2022-10-23T03:30:17.441Z,15.56
2022-10-23T03:33:04.867Z,15.23
2022-10-23T03:35:45.548Z,15.07
2022-10-23T03:38:19.050Z,15.38
2022-10-23T03:40:59.078Z,15.55
2022-10-23T03:43:41.692Z,15.81
2022-10-23T03:46:19.631Z,16.01
2022-10-23T03:49:03.026Z,16.01
2022-10-23T03:51:45.229Z,15.92
2022-10-23T03:54:25.648Z,15.92
2022-10-23T03:57:08.100Z,16.01
2022-10-23T04:09:31.217Z,16.12
2022-10-23T04:12:10.673Z,16.00
2022-10-23T04:14:47.642Z,16.01
2022-10-23T04:17:25.733Z,16.15
2022-10-23T04:20:05.232Z,16.09
2022-10-23T04:22:45.665Z,16.04
2022-10-23T04:25:23.850Z,16.14
2022-10-23T04:28:01.758Z,16.36
2022-10-23T04:30:42.818Z,16.34
2022-10-23T04:33:25.100Z,16.35
2022-10-23T04:36:02.533Z,16.11
2022-10-23T04:38:40.119Z,15.65
2022-10-23T04:41:17.718Z,15.91
2022-10-23T04:43:56.857Z,15.70
2022-10-23T04:46:33.217Z,15.80
2022-10-23T04:49:10.506Z,16.06
2022-10-23T04:52:07.916Z,16.15
2022-10-23T04:54:44.417Z,16.31
2022-10-23T04:57:31.582Z,16.48
2022-10-23T05:00:20.203Z,16.34
2022-10-23T05:03:01.173Z,16.40
2022-10-23T05:05:48.600Z,16.46
2022-10-23T05:08:51.078Z,16.40
2022-10-23T05:11:48.330Z,16.41
2022-10-23T05:14:22.898Z,16.36
2022-10-23T05:17:10.282Z,16.46
2022-10-23T05:19:53.711Z,16.44
2022-10-23T05:22:36.227Z,16.36
2022-10-23T05:25:22.107Z,16.35
2022-10-23T05:28:03.388Z,16.25
2022-10-23T05:30:37.605Z,16.30
2022-10-23T05:33:17.658Z,16.25
2022-10-23T05:35:50.644Z,16.26
2022-10-23T05:38:28.551Z,16.21
2022-10-23T05:41:14.349Z,15.89
2022-10-23T05:43:51.739Z,16.05
2022-10-23T05:46:46.528Z,16.00
2022-10-23T05:49:54.833Z,15.92
2022-10-23T05:52:54.240Z,15.91
2022-10-23T05:55:41.360Z,15.85
2022-10-23T05:58:43.223Z,15.86
2022-10-23T06:01:35.652Z,15.91
2022-10-23T06:04:13.791Z,15.93
2022-10-23T06:07:10.411Z,15.91
2022-10-23T06:09:46.470Z,15.95
2022-10-23T06:12:22.228Z,16.11
2022-10-23T06:14:58.905Z,16.05
2022-10-23T06:17:45.999Z,15.82
2022-10-23T06:20:26.661Z,15.80
2022-10-23T06:23:18.746Z,15.86
2022-10-23T06:26:18.560Z,15.81
2022-10-23T06:29:20.912Z,15.92
2022-10-23T06:31:56.042Z,16.43
2022-10-23T06:34:33.341Z,16.47
2022-10-23T06:37:12.368Z,16.73
2022-10-23T06:39:48.861Z,16.86
2022-10-23T06:42:27.661Z,17.19
2022-10-23T06:45:03.413Z,17.33
2022-10-23T06:48:04.663Z,16.97
2022-10-23T06:51:00.375Z,17.06
2022-10-23T06:53:42.523Z,16.89
2022-10-23T06:56:33.924Z,17.07
2022-10-23T06:59:14.177Z,17.00
2022-10-23T07:01:51.478Z,17.25
2022-10-23T07:04:26.189Z,17.06
2022-10-23T07:07:01.759Z,16.75
2022-10-23T07:09:46.888Z,16.85
2022-10-23T07:12:31.022Z,16.79
2022-10-23T07:15:34.925Z,16.84
2022-10-23T07:18:17.143Z,16.89
2022-10-23T07:21:14.654Z,16.81
2022-10-23T07:23:50.460Z,16.90
2022-10-23T07:26:31.861Z,17.11
2022-10-23T07:29:14.454Z,17.06
2022-10-23T07:31:52.546Z,17.28
2022-10-23T07:34:45.114Z,17.52
2022-10-23T07:37:38.175Z,17.54
2022-10-23T07:40:12.281Z,17.66
2022-10-23T07:42:53.891Z,17.86
2022-10-23T07:45:32.439Z,17.77
2022-10-23T07:48:15.197Z,17.79
2022-10-23T07:51:18.963Z,17.99
2022-10-23T07:54:04.848Z,17.58
2022-10-23T07:57:03.898Z,17.05
2022-10-23T08:00:03.968Z,17.19
2022-10-23T08:02:54.442Z,17.07
2022-10-23T08:05:32.009Z,17.06
2022-10-23T08:08:16.059Z,17.26
2022-10-23T08:10:57.331Z,17.29
2022-10-23T08:13:38.925Z,17.34
2022-10-23T08:16:15.927Z,17.75
2022-10-23T08:19:14.188Z,17.90
2022-10-23T08:34:22.183Z,17.55
2022-10-23T08:36:51.769Z,17.70
2022-10-23T08:39:21.575Z,17.69
2022-10-23T08:42:05.055Z,17.56
2022-10-23T08:44:41.697Z,17.52
2022-10-23T08:47:37.759Z,17.64
2022-10-23T08:50:39.564Z,18.23
2022-10-23T08:54:02.502Z,18.35
2022-10-23T08:56:38.764Z,18.51
2022-10-23T08:59:23.273Z,18.52
2022-10-23T09:02:06.903Z,18.73
2022-10-23T09:04:39.051Z,18.92
2022-10-23T09:07:25.069Z,19.10
2022-10-23T09:10:12.881Z,19.46
2022-10-23T09:12:42.611Z,19.29
2022-10-23T09:15:32.949Z,19.03
2022-10-23T09:18:13.129Z,18.91
2022-10-23T09:20:48.448Z,19.03
2022-10-23T09:23:32.266Z,19.34
2022-10-23T09:26:09.919Z,19.41
2022-10-23T09:29:04.085Z,19.06
2022-10-23T09:31:50.949Z,18.96
2022-10-23T09:34:23.779Z,18.69
2022-10-23T09:37:00.398Z,18.96
2022-10-23T09:39:34.889Z,18.62
2022-10-23T09:42:22.766Z,18.38
2022-10-23T09:44:56.113Z,18.72
2022-10-23T09:47:29.744Z,18.55
2022-10-23T09:50:03.080Z,18.75
2022-10-23T09:52:41.848Z,18.97
2022-10-23T09:55:24.629Z,18.97
2022-10-23T09:57:56.464Z,19.06
2022-10-23T10:00:28.598Z,19.13
2022-10-23T10:03:05.351Z,19.49
2022-10-23T10:05:52.266Z,19.88
2022-10-23T10:08:54.451Z,20.04
2022-10-23T10:11:45.576Z,20.03
2022-10-23T10:14:31.380Z,20.20
2022-10-23T10:17:31.163Z,20.15
2022-10-23T10:20:29.105Z,20.10
2022-10-23T10:23:04.496Z,19.57
2022-10-23T10:25:42.604Z,19.63
2022-10-23T10:28:28.418Z,19.44
2022-10-23T10:31:11.980Z,19.34
2022-10-23T10:34:08.621Z,19.62
2022-10-23T10:36:43.465Z,20.07
2022-10-23T10:39:22.053Z,20.35
2022-10-23T10:42:33.154Z,20.83
2022-10-23T10:45:18.520Z,21.07
2022-10-23T10:48:11.287Z,21.04
2022-10-23T10:51:17.500Z,20.97
2022-10-23T10:54:10.003Z,21.13
2022-10-23T10:56:43.630Z,21.07
2022-10-23T10:59:26.350Z,21.08
2022-10-23T11:01:54.994Z,21.37
2022-10-23T11:04:49.303Z,21.52
2022-10-23T11:07:24.578Z,21.46
2022-10-23T11:09:59.738Z,21.29
2022-10-23T11:12:30.351Z,21.24
2022-10-23T11:15:02.148Z,21.39
2022-10-23T11:17:39.279Z,21.29
2022-10-23T11:20:36.318Z,21.41
2022-10-23T11:23:44.419Z,21.45
2022-10-23T11:26:34.260Z,21.62
2022-10-23T11:29:18.464Z,21.88
2022-10-23T11:32:14.366Z,21.90
2022-10-23T11:35:04.144Z,21.70
2022-10-23T11:37:33.903Z,21.50
2022-10-23T11:40:24.442Z,21.74
2022-10-23T11:42:57.267Z,21.91
2022-10-23T11:45:37.404Z,21.85
2022-10-23T11:48:23.175Z,22.29
2022-10-23T11:51:00.213Z,22.74
2022-10-23T11:53:34.395Z,22.56
2022-10-23T11:56:27.547Z,22.35
2022-10-23T11:59:00.479Z,22.78
2022-10-23T12:01:42.913Z,23.22
2022-10-23T12:04:14.638Z,23.23
2022-10-23T12:07:15.122Z,23.47
2022-10-23T12:09:54.769Z,23.92
2022-10-23T12:12:41.452Z,24.20
2022-10-23T12:15:23.168Z,23.89
2022-10-23T12:17:54.704Z,23.87
2022-10-23T12:20:49.105Z,23.93
2022-10-23T12:23:45.823Z,23.97
2022-10-23T12:26:33.584Z,24.25
2022-10-23T12:29:18.045Z,24.26
2022-10-23T12:32:10.452Z,24.37
2022-10-23T12:35:30.436Z,24.37
2022-10-23T12:38:06.060Z,24.26
2022-10-23T12:40:39.759Z,24.26
2022-10-23T12:43:41.158Z,24.40
2022-10-23T12:46:12.967Z,24.25
2022-10-23T12:48:54.678Z,24.51
2022-10-23T12:51:27.651Z,24.59
2022-10-23T12:53:57.880Z,24.35
2022-10-23T12:56:37.977Z,24.38
2022-10-23T12:59:20.399Z,24.58
2022-10-23T13:01:52.892Z,24.60
2022-10-23T13:04:33.892Z,24.75
2022-10-23T13:07:05.153Z,24.89
2022-10-23T13:09:38.958Z,24.91
2022-10-23T13:12:25.733Z,24.92
2022-10-23T13:14:58.851Z,24.81
2022-10-23T13:17:45.811Z,24.85
2022-10-23T13:20:19.038Z,24.70
2022-10-23T13:22:57.688Z,24.57
2022-10-23T13:25:33.841Z,24.64
2022-10-23T13:28:34.656Z,24.27
2022-10-23T13:31:07.666Z,24.35
2022-10-23T13:33:45.958Z,24.42
2022-10-23T13:36:14.784Z,24.55
2022-10-23T13:38:46.831Z,24.26
2022-10-23T13:41:20.276Z,24.40
2022-10-23T13:43:48.896Z,24.41
2022-10-23T13:46:19.977Z,24.37
2022-10-23T13:48:49.441Z,24.55
2022-10-23T13:51:38.837Z,24.76
2022-10-23T13:54:20.150Z,24.97
2022-10-23T13:56:52.852Z,25.09
2022-10-23T13:59:22.598Z,24.83
2022-10-23T14:01:54.068Z,24.81
2022-10-23T14:04:24.006Z,25.11
2022-10-23T14:06:58.855Z,25.17
2022-10-23T14:09:27.919Z,25.49
2022-10-23T14:12:00.222Z,25.60
2022-10-23T14:14:29.786Z,25.48
2022-10-23T14:16:58.692Z,25.29
2022-10-23T14:19:27.548Z,25.20
2022-10-23T14:21:56.404Z,25.12
2022-10-23T14:24:25.156Z,25.09
2022-10-23T14:26:55.075Z,24.99
2022-10-23T14:29:24.625Z,24.82
2022-10-23T14:31:53.663Z,24.52
2022-10-23T14:34:22.322Z,24.58
2022-10-23T14:37:07.338Z,24.39
2022-10-23T14:39:40.234Z,24.23
2022-10-23T14:42:13.436Z,24.11
2022-10-23T14:44:50.260Z,23.60
2022-10-23T14:47:23.324Z,23.70
2022-10-23T14:49:54.806Z,23.66
2022-10-23T14:52:24.530Z,23.51
2022-10-23T14:54:55.178Z,23.65
2022-10-23T14:57:27.916Z,23.63
2022-10-23T14:59:57.725Z,23.46
2022-10-23T15:02:26.225Z,23.31
2022-10-23T15:04:57.010Z,23.23
2022-10-23T15:07:26.758Z,23.06
2022-10-23T15:09:56.227Z,22.91
2022-10-23T15:12:25.126Z,22.86
2022-10-23T15:14:54.462Z,22.66
2022-10-23T15:17:24.423Z,22.31
2022-10-23T15:19:57.546Z,22.16
2022-10-23T15:22:27.176Z,22.04
2022-10-23T15:24:57.145Z,22.02
2022-10-23T15:27:25.720Z,22.06
2022-10-23T15:29:54.902Z,22.03
2022-10-23T15:32:23.946Z,21.96
2022-10-23T15:34:55.044Z,21.87
2022-10-23T15:37:24.849Z,21.69
2022-10-23T15:39:58.363Z,21.48
2022-10-23T15:42:30.059Z,21.29
2022-10-23T15:44:58.859Z,21.11
2022-10-23T15:47:27.835Z,21.02
2022-10-23T15:49:56.663Z,20.75
2022-10-23T15:52:25.265Z,20.52
2022-10-23T15:54:53.934Z,20.28
2022-10-23T15:57:22.022Z,20.11
2022-10-23T15:59:51.165Z,20.07
2022-10-23T16:02:20.081Z,19.99
2022-10-23T16:04:49.217Z,19.88
2022-10-23T16:07:18.839Z,19.73
2022-10-23T16:09:47.497Z,19.51
2022-10-23T16:12:16.369Z,19.44
2022-10-23T16:14:46.026Z,19.45
2022-10-23T16:19:43.982Z,19.27
2022-10-23T16:22:14.204Z,19.08
2022-10-23T16:24:43.356Z,18.88
2022-10-23T16:27:12.371Z,18.72
2022-10-23T16:29:40.690Z,18.47
2022-10-23T16:32:09.106Z,18.35
2022-10-23T16:34:38.182Z,18.32
2022-10-23T16:37:08.300Z,18.37
2022-10-23T16:39:50.323Z,18.36
2022-10-23T16:42:39.909Z,18.41
2022-10-23T16:45:15.366Z,18.44
2022-10-23T16:47:45.487Z,18.43
2022-10-23T16:50:16.269Z,18.42
2022-10-23T16:52:45.627Z,18.20
2022-10-23T16:55:18.005Z,17.83
2022-10-23T16:57:46.918Z,17.60
2022-10-23T17:00:17.480Z,17.50
2022-10-23T17:02:46.570Z,17.40
2022-10-23T17:05:22.362Z,17.49
2022-10-23T17:07:50.756Z,17.50
2022-10-23T17:19:56.726Z,16.94
2022-10-23T17:22:25.590Z,16.77
2022-10-23T17:24:54.584Z,16.74
2022-10-23T17:27:23.527Z,16.79
2022-10-23T17:29:57.422Z,16.92
2022-10-23T17:32:26.820Z,17.10
2022-10-23T17:34:55.745Z,17.20
2022-10-23T17:37:26.684Z,17.21
2022-10-23T17:40:00.970Z,17.14
2022-10-23T17:42:31.337Z,17.15
2022-10-23T17:45:03.367Z,17.08
2022-10-23T17:47:34.350Z,16.93
2022-10-23T17:50:04.270Z,16.81
2022-10-23T17:52:36.218Z,16.81
2022-10-23T17:55:11.392Z,16.83
2022-10-23T17:57:41.906Z,16.86
2022-10-23T18:00:12.906Z,16.85
2022-10-23T18:02:43.842Z,16.83
2022-10-23T18:05:14.840Z,16.68
2022-10-23T18:07:49.240Z,16.67
2022-10-23T18:10:19.196Z,16.61
2022-10-23T18:12:48.180Z,16.51
2022-10-23T18:15:17.336Z,16.43
2022-10-23T18:17:46.387Z,16.40
2022-10-23T18:20:16.461Z,16.44
2022-10-23T18:22:45.932Z,16.43
2022-10-23T18:25:15.472Z,16.33
2022-10-23T18:27:47.726Z,16.22
2022-10-23T18:30:17.176Z,16.21
2022-10-23T18:32:47.542Z,16.27
2022-10-23T18:35:16.289Z,16.20
2022-10-23T18:37:49.887Z,16.25
2022-10-23T18:40:24.286Z,16.27
2022-10-23T18:42:57.735Z,16.17
2022-10-23T18:45:27.139Z,16.09
2022-10-23T18:47:56.919Z,16.03
2022-10-23T18:50:28.732Z,15.93
2022-10-23T18:52:57.572Z,15.90
2022-10-23T18:55:25.987Z,15.93
2022-10-23T18:57:55.231Z,15.87
2022-10-23T19:00:27.435Z,15.86
2022-10-23T19:02:59.139Z,15.83
2022-10-23T19:05:29.154Z,15.76
2022-10-23T19:08:03.419Z,16.02
2022-10-23T19:10:35.670Z,16.10
2022-10-23T19:13:05.629Z,16.23
2022-10-23T19:15:37.327Z,16.34
2022-10-23T19:18:07.835Z,16.41
2022-10-23T19:20:38.101Z,16.39
2022-10-23T19:23:07.380Z,16.40
2022-10-23T19:25:38.367Z,16.41
2022-10-23T19:28:07.252Z,16.39
2022-10-23T19:30:36.678Z,16.40
2022-10-23T19:33:06.422Z,16.41
2022-10-23T19:35:34.543Z,16.30
2022-10-23T19:48:47.023Z,16.23
2022-10-23T19:51:59.856Z,16.10
2022-10-23T19:54:28.107Z,15.87
2022-10-23T19:56:57.086Z,15.89
2022-10-23T19:59:30.560Z,15.96
2022-10-23T20:01:58.681Z,15.99
2022-10-23T20:04:26.753Z,15.97
2022-10-23T20:06:56.008Z,15.76
2022-10-23T20:09:25.703Z,15.69
2022-10-23T20:11:55.416Z,15.71
2022-10-23T20:14:23.441Z,15.77
2022-10-23T20:16:55.686Z,15.96
2022-10-23T20:19:24.387Z,16.13
2022-10-23T20:21:57.858Z,16.15
2022-10-23T20:24:25.812Z,16.25
2022-10-23T20:26:55.160Z,16.24
2022-10-23T20:29:24.084Z,16.16
2022-10-23T20:31:52.665Z,16.14
2022-10-23T20:34:22.197Z,16.03
2022-10-23T20:36:49.707Z,15.97
2022-10-23T20:39:21.027Z,16.00
2022-10-23T20:41:48.159Z,15.97
2022-10-23T20:44:18.476Z,15.85
2022-10-23T20:46:46.290Z,15.77
2022-10-23T20:49:15.679Z,15.91
2022-10-23T20:51:43.395Z,15.99
2022-10-23T20:54:10.731Z,15.96
2022-10-23T20:56:39.438Z,15.90
2022-10-23T20:59:11.459Z,15.88
2022-10-23T21:01:41.770Z,16.01
2022-10-23T21:04:13.141Z,16.04
2022-10-23T21:06:57.821Z,15.98
2022-10-23T21:09:30.083Z,15.95
2022-10-23T21:11:57.735Z,15.90
2022-10-23T21:14:26.176Z,15.77
2022-10-23T21:16:53.022Z,15.73
2022-10-23T21:19:19.887Z,15.73
2022-10-23T21:21:48.907Z,15.58
2022-10-23T21:24:17.147Z,15.53
2022-10-23T21:26:44.703Z,15.53
2022-10-23T21:29:20.858Z,15.51
2022-10-23T21:31:56.768Z,15.61
2022-10-23T21:34:25.058Z,15.69
2022-10-23T21:37:12.030Z,15.78
2022-10-23T21:39:44.352Z,15.69
2022-10-23T21:42:13.413Z,15.65
2022-10-23T21:44:40.498Z,15.48
2022-10-23T21:47:07.149Z,15.43
2022-10-23T21:49:34.184Z,15.31
2022-10-23T21:52:06.094Z,15.24
2022-10-23T21:54:32.890Z,15.18
2022-10-23T21:57:03.561Z,15.08
2022-10-23T21:59:33.229Z,14.97
2022-10-23T22:02:02.245Z,15.04
2022-10-23T22:04:29.063Z,15.01
2022-10-23T22:06:55.706Z,14.96
2022-10-23T22:09:22.338Z,15.03
2022-10-23T22:11:50.882Z,15.08
2022-10-23T22:14:18.967Z,15.05
2022-10-23T22:16:45.991Z,15.08
2022-10-23T22:19:16.346Z,15.11
2022-10-23T22:21:43.575Z,15.22
2022-10-23T22:24:10.673Z,15.35
2022-10-23T22:26:41.293Z,15.41
2022-10-23T22:29:11.201Z,15.38
2022-10-23T22:31:38.484Z,15.30
2022-10-23T22:34:18.708Z,15.15
2022-10-23T22:36:55.330Z,15.09
2022-10-23T22:39:22.684Z,15.10
2022-10-23T22:41:49.775Z,15.05
2022-10-23T22:44:16.395Z,14.93
2022-10-23T22:46:43.960Z,14.82
2022-10-23T22:49:10.950Z,14.66
2022-10-23T22:51:39.064Z,14.61
2022-10-23T22:54:06.325Z,14.57
2022-10-23T22:56:34.713Z,14.75
2022-10-23T22:59:01.894Z,15.03
2022-10-23T23:01:30.152Z,15.19
2022-10-23T23:04:04.277Z,15.23
2022-10-23T23:06:44.906Z,15.22
2022-10-23T23:09:17.026Z,15.37
2022-10-23T23:11:51.719Z,15.41
2022-10-23T23:14:23.180Z,15.43
2022-10-23T23:16:52.367Z,15.47
2022-10-23T23:19:22.368Z,15.30
2022-10-23T23:21:49.315Z,15.29
2022-10-23T23:24:15.760Z,15.31
2022-10-23T23:26:42.374Z,15.34
2022-10-23T23:29:09.207Z,15.25
2022-10-23T23:31:35.673Z,15.25
2022-10-23T23:34:02.367Z,15.26
2022-10-23T23:36:29.224Z,15.36
2022-10-23T23:38:57.335Z,15.37
2022-10-23T23:41:26.878Z,15.38
2022-10-23T23:43:55.935Z,15.39
2022-10-23T23:46:24.098Z,15.36
2022-10-23T23:48:50.475Z,15.32
2022-10-23T23:51:19.973Z,15.30
2022-10-23T23:53:47.772Z,15.35
2022-10-23T23:56:14.609Z,15.46
2022-10-23T23:58:41.266Z,15.57
